Time;durP1;ratioP1;P1;durP2;ratioP2;P2;SDS_P1;SDS_P2;PMS_P1;PMS_P2;Temp;Humidity;BMP_temperature;BMP_pressure;BME280_temperature;BME280_humidity;BME280_pressure;Samples;Min_cycle;Max_cycle;Signal;HPM_P1;HPM_P2
2022/05/23 00:01:51;;;;;;;6.72;4.32;;;13.40;99.90;;;;;;4977900;28;94325;-34
2022/05/23 00:04:17;;;;;;;6.00;4.45;;;13.40;99.90;;;;;;4978321;28;94329;-37
2022/05/23 00:06:43;;;;;;;7.50;4.72;;;13.40;99.90;;;;;;4977063;28;96121;-36
2022/05/23 00:09:10;;;;;;;4.40;4.07;;;13.40;99.90;;;;;;4977288;28;94636;-39
2022/05/23 00:11:35;;;;;;;5.18;4.68;;;13.30;99.90;;;;;;4977544;28;92218;-37
2022/05/23 00:14:01;;;;;;;8.65;5.10;;;13.30;99.90;;;;;;4978199;28;92924;-36
2022/05/23 00:16:31;;;;;;;4.68;4.25;;;13.30;99.90;;;;;;4977994;28;94728;-34
2022/05/23 00:18:57;;;;;;;8.07;4.93;;;13.30;99.90;;;;;;4977171;28;94584;-36
2022/05/23 00:21:22;;;;;;;8.10;4.78;;;13.20;99.90;;;;;;4977173;28;95367;-37
2022/05/23 00:23:48;;;;;;;10.20;4.38;;;13.20;99.90;;;;;;4976631;28;93478;-37
2022/05/23 00:26:17;;;;;;;7.97;4.10;;;13.20;99.90;;;;;;4977375;28;94999;-34
2022/05/23 00:28:43;;;;;;;7.05;4.57;;;13.10;99.90;;;;;;4977596;28;94299;-34
2022/05/23 00:31:10;;;;;;;11.65;4.80;;;13.10;99.90;;;;;;4976928;28;93322;-34
2022/05/23 00:36:21;;;;;;;4.50;3.88;;;13.10;99.90;;;;;;4976404;28;96197;-34
2022/05/23 00:38:46;;;;;;;9.10;4.55;;;13.20;99.90;;;;;;4976935;28;95175;-34
2022/05/23 00:44:23;;;;;;;6.47;4.65;;;13.20;99.90;;;;;;4976942;28;94302;-40
2022/05/23 00:47:02;;;;;;;4.88;4.40;;;13.20;99.90;;;;;;4976431;28;96448;-35
2022/05/23 00:49:36;;;;;;;4.45;4.15;;;13.20;99.90;;;;;;4968805;22;1109141;-38
2022/05/23 00:52:06;;;;;;;4.20;3.90;;;13.10;99.90;;;;;;4977039;28;94104;-36
2022/05/23 00:54:37;;;;;;;4.93;4.32;;;13.10;99.90;;;;;;4976935;28;93012;-34
2022/05/23 00:57:04;;;;;;;5.63;4.97;;;13.00;99.90;;;;;;4976078;28;94682;-38
2022/05/23 00:59:32;;;;;;;12.43;4.85;;;13.00;99.90;;;;;;4976994;28;95160;-35
2022/05/23 01:01:59;;;;;;;4.82;4.38;;;12.90;99.90;;;;;;4977005;28;95305;-39
2022/05/23 01:04:25;;;;;;;4.73;4.33;;;12.90;99.90;;;;;;4977701;28;91363;-37
2022/05/23 01:06:51;;;;;;;4.78;4.38;;;12.90;99.90;;;;;;4976175;28;94777;-35
2022/05/23 01:09:20;;;;;;;5.03;4.60;;;13.00;99.90;;;;;;4976849;28;95318;-35
2022/05/23 01:11:45;;;;;;;9.70;4.85;;;12.90;99.90;;;;;;4976325;28;95548;-36
2022/05/23 01:14:11;;;;;;;5.90;4.65;;;12.90;99.90;;;;;;4976763;28;92547;-36
2022/05/23 01:16:37;;;;;;;4.63;4.30;;;12.90;99.90;;;;;;4976565;28;94778;-34
2022/05/23 01:19:03;;;;;;;5.38;4.78;;;12.90;99.90;;;;;;4976877;28;94105;-35
2022/05/23 01:21:33;;;;;;;4.93;4.43;;;12.80;99.90;;;;;;4976144;28;93110;-34
2022/05/23 01:24:11;;;;;;;4.85;4.38;;;12.80;99.90;;;;;;4976023;28;93149;-38
2022/05/23 01:26:37;;;;;;;7.78;4.53;;;12.80;99.90;;;;;;4976048;28;93438;-33
2022/05/23 01:29:12;;;;;;;5.00;4.68;;;12.80;99.90;;;;;;4977132;28;94692;-36
2022/05/23 01:31:38;;;;;;;9.77;4.50;;;12.80;99.90;;;;;;4971676;28;93839;-35
2022/05/23 01:34:04;;;;;;;5.88;4.57;;;12.80;99.90;;;;;;4956751;28;93312;-38
2022/05/23 01:36:29;;;;;;;7.15;5.07;;;12.80;99.90;;;;;;4958524;28;95506;-35
2022/05/23 01:38:55;;;;;;;8.13;4.65;;;12.80;99.90;;;;;;4960003;28;94950;-37
2022/05/23 01:41:21;;;;;;;5.72;5.18;;;12.80;99.90;;;;;;4961301;28;94603;-33
2022/05/23 01:43:47;;;;;;;6.05;5.45;;;12.80;99.90;;;;;;4959833;28;93412;-35
2022/05/23 01:46:12;;;;;;;5.88;5.22;;;12.80;99.90;;;;;;4960326;28;94394;-35
2022/05/23 01:48:38;;;;;;;5.85;4.97;;;12.80;99.90;;;;;;4959595;28;93964;-34
2022/05/23 01:51:03;;;;;;;6.60;5.30;;;12.80;99.90;;;;;;4959778;28;92245;-35
2022/05/23 01:53:29;;;;;;;5.35;4.85;;;12.80;99.90;;;;;;4960938;28;91813;-33
2022/05/23 01:55:55;;;;;;;7.78;4.70;;;12.90;99.90;;;;;;4959335;28;94761;-34
2022/05/23 02:01:14;;;;;;;6.43;5.53;;;12.80;99.90;;;;;;4959562;28;94293;-37
2022/05/23 02:03:41;;;;;;;6.90;5.15;;;12.70;99.90;;;;;;4959710;28;95013;-34
2022/05/23 02:06:07;;;;;;;5.30;4.82;;;12.70;99.90;;;;;;4960033;28;94647;-36
2022/05/23 02:08:32;;;;;;;9.30;6.53;;;12.70;99.90;;;;;;4959675;28;94608;-34
2022/05/23 02:10:58;;;;;;;5.68;5.18;;;12.70;99.90;;;;;;4960087;28;93184;-34
2022/05/23 02:13:24;;;;;;;6.22;5.72;;;12.70;99.90;;;;;;4959506;28;94446;-36
2022/05/23 02:15:49;;;;;;;6.03;5.43;;;12.70;99.90;;;;;;4958984;28;94882;-38
2022/05/23 02:18:15;;;;;;;7.20;5.28;;;12.60;99.90;;;;;;4960008;28;94458;-34
2022/05/23 02:20:40;;;;;;;6.65;6.03;;;12.70;99.90;;;;;;4959091;28;92143;-42
2022/05/23 02:23:06;;;;;;;7.47;6.15;;;12.70;99.90;;;;;;4959834;28;94364;-33
2022/05/23 02:25:32;;;;;;;15.85;6.28;;;12.70;99.90;;;;;;4958589;28;95915;-33
2022/05/23 02:27:58;;;;;;;12.43;6.55;;;12.80;99.90;;;;;;4959023;28;94856;-35
2022/05/23 02:30:23;;;;;;;10.73;6.15;;;12.80;99.90;;;;;;4959441;28;94376;-37
2022/05/23 02:32:49;;;;;;;8.25;6.05;;;12.80;99.90;;;;;;4959222;28;93522;-35
2022/05/23 02:35:17;;;;;;;7.63;5.90;;;12.80;99.90;;;;;;4960246;28;95082;-38
2022/05/23 02:37:43;;;;;;;7.35;5.15;;;12.70;99.90;;;;;;4958423;28;93432;-33
2022/05/23 02:40:10;;;;;;;7.03;6.43;;;12.70;99.90;;;;;;4959730;28;94324;-35
2022/05/23 02:42:36;;;;;;;6.57;5.97;;;12.80;99.90;;;;;;4959461;28;91942;-36
2022/05/23 02:45:02;;;;;;;6.68;6.07;;;12.80;99.90;;;;;;4958947;28;94521;-34
2022/05/23 02:47:28;;;;;;;10.18;7.13;;;12.70;99.90;;;;;;4959202;28;94795;-36
2022/05/23 02:49:54;;;;;;;8.43;6.25;;;12.80;99.90;;;;;;4959451;28;94064;-33
2022/05/23 02:52:19;;;;;;;8.00;7.00;;;12.80;99.90;;;;;;4958560;28;92302;-34
2022/05/23 02:54:45;;;;;;;6.93;6.32;;;12.80;99.90;;;;;;4959072;28;94620;-34
2022/05/23 02:57:11;;;;;;;7.22;6.60;;;12.80;99.90;;;;;;4959031;28;94637;-36
2022/05/23 02:59:36;;;;;;;7.97;7.18;;;12.70;99.90;;;;;;4959347;28;92497;-36
2022/05/23 03:04:46;;;;;;;8.10;7.05;;;12.60;99.90;;;;;;4958831;28;94764;-35
2022/05/23 03:07:12;;;;;;;10.27;6.55;;;12.50;99.90;;;;;;4959227;28;95689;-35
2022/05/23 03:09:37;;;;;;;7.35;6.47;;;12.50;99.90;;;;;;4957358;28;92207;-34
2022/05/23 03:12:03;;;;;;;13.75;8.38;;;12.60;99.90;;;;;;4958808;28;93149;-36
2022/05/23 03:14:29;;;;;;;7.82;7.20;;;12.60;99.90;;;;;;4958408;28;96193;-33
2022/05/23 03:17:00;;;;;;;7.85;7.05;;;12.60;99.90;;;;;;4957981;28;95713;-41
2022/05/23 03:19:26;;;;;;;8.38;7.57;;;12.60;99.90;;;;;;4959139;28;94433;-35
2022/05/23 03:27:20;;;;;;;8.60;6.43;;;12.60;99.90;;;;;;4957994;28;94231;-36
2022/05/23 03:29:46;;;;;;;8.27;7.47;;;12.60;99.90;;;;;;4958537;28;94392;-35
2022/05/23 03:32:13;;;;;;;7.72;6.93;;;12.70;99.90;;;;;;4958817;28;92688;-38
2022/05/23 03:34:38;;;;;;;6.97;6.43;;;12.70;99.90;;;;;;4958561;28;94797;-34
2022/05/23 03:37:05;;;;;;;6.80;6.20;;;12.70;99.90;;;;;;4957345;28;95487;-33
2022/05/23 03:39:31;;;;;;;8.10;7.07;;;12.70;99.90;;;;;;4958437;28;94510;-38
2022/05/23 03:41:56;;;;;;;10.27;7.28;;;12.80;99.90;;;;;;4957859;28;94151;-35
2022/05/23 03:44:22;;;;;;;8.65;7.78;;;12.80;99.90;;;;;;4957958;28;99323;-37
2022/05/23 03:46:48;;;;;;;7.10;6.50;;;12.90;99.90;;;;;;4957724;28;94605;-33
2022/05/23 03:49:13;;;;;;;7.95;7.25;;;12.80;99.90;;;;;;4957877;28;92699;-33
2022/05/23 03:51:39;;;;;;;7.40;6.75;;;12.80;99.90;;;;;;4957712;28;93582;-36
2022/05/23 03:54:05;;;;;;;7.65;7.03;;;12.80;99.90;;;;;;4957910;28;94795;-37
2022/05/23 03:56:30;;;;;;;9.77;8.02;;;12.90;99.90;;;;;;4958339;28;95153;-33
2022/05/23 03:58:56;;;;;;;8.40;7.35;;;12.90;99.90;;;;;;4957428;28;93613;-34
2022/05/23 04:01:25;;;;;;;8.32;6.85;;;13.00;99.90;;;;;;4957475;28;94540;-35
2022/05/23 04:03:50;;;;;;;7.97;7.22;;;13.00;99.90;;;;;;4956649;28;95999;-40
2022/05/23 04:06:16;;;;;;;8.05;6.97;;;13.00;99.90;;;;;;4957608;28;96121;-35
2022/05/23 04:08:42;;;;;;;7.50;6.90;;;13.00;99.90;;;;;;4957641;28;92515;-34
2022/05/23 04:11:08;;;;;;;9.13;7.65;;;13.00;99.90;;;;;;4958009;28;93300;-38
2022/05/23 04:13:34;;;;;;;7.40;6.82;;;13.00;99.90;;;;;;4958175;28;94478;-37
2022/05/23 04:16:00;;;;;;;7.65;6.07;;;13.00;99.90;;;;;;4957364;28;94470;-41
2022/05/23 04:18:25;;;;;;;11.43;8.13;;;13.00;99.90;;;;;;4958069;28;92869;-33
2022/05/23 04:20:52;;;;;;;8.05;7.30;;;13.00;99.90;;;;;;4958033;28;93633;-33
2022/05/23 04:23:18;;;;;;;8.30;7.43;;;13.10;99.90;;;;;;4957998;28;95475;-34
2022/05/23 04:25:47;;;;;;;9.45;6.97;;;13.00;99.90;;;;;;4957526;28;93970;-38
2022/05/23 04:28:14;;;;;;;12.50;7.20;;;13.00;99.90;;;;;;4972390;28;95580;-37
2022/05/23 04:30:40;;;;;;;11.70;7.78;;;13.10;99.90;;;;;;4957447;28;93667;-35
2022/05/23 04:35:51;;;;;;;9.90;7.25;;;13.00;99.90;;;;;;4957714;28;94823;-37
2022/05/23 04:38:18;;;;;;;10.10;7.45;;;13.10;99.90;;;;;;4957437;28;92684;-39
2022/05/23 04:40:44;;;;;;;8.73;7.03;;;13.20;99.90;;;;;;4957402;28;93253;-36
2022/05/23 04:43:10;;;;;;;10.52;7.43;;;13.40;99.90;;;;;;4957396;28;94612;-34
2022/05/23 04:45:35;;;;;;;10.02;7.85;;;13.40;99.90;;;;;;4957608;28;94579;-38
2022/05/23 04:50:45;;;;;;;11.00;7.88;;;13.40;99.90;;;;;;4956719;28;94459;-37
2022/05/23 04:53:11;;;;;;;12.55;7.70;;;13.50;99.90;;;;;;4956424;28;96151;-34
2022/05/23 04:55:38;;;;;;;8.65;7.78;;;13.70;99.90;;;;;;4956460;28;95928;-35
2022/05/23 04:58:04;;;;;;;9.87;7.87;;;13.90;99.90;;;;;;4957312;28;94007;-37
2022/05/23 05:00:30;;;;;;;8.00;7.20;;;14.20;99.90;;;;;;4957939;28;93528;-36
2022/05/23 05:02:59;;;;;;;8.32;7.22;;;14.40;99.90;;;;;;4956324;28;94695;-35
2022/05/23 05:05:27;;;;;;;11.93;7.47;;;14.60;99.90;;;;;;4957040;28;94362;-34
2022/05/23 05:07:54;;;;;;;8.73;7.53;;;14.50;99.90;;;;;;4961673;28;93479;-33
2022/05/23 05:10:21;;;;;;;10.90;8.15;;;14.30;99.90;;;;;;4975587;28;93561;-35
2022/05/23 05:12:48;;;;;;;8.75;7.75;;;14.50;99.90;;;;;;4976463;28;95188;-34
2022/05/23 05:15:14;;;;;;;9.80;7.75;;;14.50;99.90;;;;;;4975985;28;94600;-36
2022/05/23 05:17:39;;;;;;;13.98;9.13;;;14.50;99.90;;;;;;4976520;28;93487;-36
2022/05/23 05:20:08;;;;;;;7.22;6.57;;;14.30;99.90;;;;;;4976275;28;92967;-38
2022/05/23 05:22:35;;;;;;;13.93;7.75;;;14.50;99.90;;;;;;4976021;28;94565;-33
2022/05/23 05:25:01;;;;;;;8.90;8.10;;;14.40;99.90;;;;;;4976872;28;94646;-35
2022/05/23 05:27:29;;;;;;;10.13;9.13;;;14.40;99.90;;;;;;4976249;28;93318;-33
2022/05/23 05:29:55;;;;;;;11.07;8.73;;;14.40;99.90;;;;;;4975053;28;93656;-34
2022/05/23 05:32:27;;;;;;;12.48;8.98;;;14.50;99.90;;;;;;4975885;28;95409;-39
2022/05/23 05:34:59;;;;;;;7.72;7.03;;;14.60;99.90;;;;;;4976094;28;93583;-34
2022/05/23 05:37:31;;;;;;;9.93;8.15;;;14.60;99.90;;;;;;4975950;28;93195;-32
2022/05/23 05:39:58;;;;;;;9.05;7.55;;;14.60;99.90;;;;;;4975990;28;94199;-34
2022/05/23 05:42:34;;;;;;;10.70;8.40;;;14.70;99.90;;;;;;4975531;28;95356;-37
2022/05/23 05:45:07;;;;;;;14.95;7.93;;;14.80;99.90;;;;;;4975763;28;95520;-34
2022/05/23 05:47:36;;;;;;;8.55;7.45;;;15.00;99.90;;;;;;4976747;28;94272;-34
2022/05/23 05:50:09;;;;;;;14.32;8.63;;;15.10;99.90;;;;;;4976867;28;94558;-36
2022/05/23 05:52:35;;;;;;;9.52;8.60;;;15.50;99.90;;;;;;4974981;28;94831;-38
2022/05/23 05:55:04;;;;;;;10.40;8.65;;;15.70;99.90;;;;;;4972723;28;94772;-34
2022/05/23 05:57:30;;;;;;;8.70;7.85;;;16.10;99.90;;;;;;4974235;28;94563;-34
2022/05/23 05:59:56;;;;;;;10.50;7.93;;;16.30;99.90;;;;;;4974115;28;92387;-36
2022/05/23 06:02:21;;;;;;;11.70;7.95;;;16.60;99.90;;;;;;4974075;28;96175;-37
2022/05/23 06:04:47;;;;;;;8.90;8.10;;;16.80;99.90;;;;;;4974140;28;94850;-35
2022/05/23 06:12:53;;;;;;;9.80;8.07;;;16.60;99.90;;;;;;4972982;28;95138;-35
2022/05/23 06:15:19;;;;;;;9.23;8.32;;;16.50;99.90;;;;;;4974302;28;94378;-36
2022/05/23 06:17:44;;;;;;;9.18;7.60;;;16.60;99.90;;;;;;4973845;28;93794;-37
2022/05/23 06:20:15;;;;;;;10.05;8.25;;;16.90;99.90;;;;;;4989098;28;93077;-35
2022/05/23 06:22:40;;;;;;;9.05;7.85;;;17.30;99.90;;;;;;4976126;28;94442;-35
2022/05/23 06:25:08;;;;;;;12.43;7.75;;;17.40;99.90;;;;;;4977646;28;94421;-35
2022/05/23 06:27:34;;;;;;;9.27;7.87;;;17.50;99.90;;;;;;4977317;28;93401;-37
2022/05/23 06:29:59;;;;;;;7.75;6.93;;;17.80;99.90;;;;;;4977540;28;92562;-36
2022/05/23 06:32:25;;;;;;;12.77;8.32;;;17.90;99.90;;;;;;4976763;28;97566;-35
2022/05/23 06:34:50;;;;;;;9.13;8.23;;;18.30;99.90;;;;;;4976257;28;95509;-34
2022/05/23 06:37:16;;;;;;;11.55;7.25;;;18.50;99.90;;;;;;4977841;28;93067;-37
2022/05/23 06:39:41;;;;;;;11.93;7.97;;;18.50;99.90;;;;;;4976894;28;93066;-35
2022/05/23 06:42:07;;;;;;;8.68;7.55;;;18.70;99.90;;;;;;4977461;28;94606;-37
2022/05/23 06:44:33;;;;;;;9.68;7.03;;;18.60;99.90;;;;;;4976948;28;94328;-36
2022/05/23 06:46:59;;;;;;;8.27;6.82;;;18.60;99.90;;;;;;4977095;28;94443;-40
2022/05/23 06:49:25;;;;;;;8.35;7.20;;;18.60;99.90;;;;;;4976890;28;93546;-37
2022/05/23 06:51:52;;;;;;;7.53;6.85;;;18.70;99.90;;;;;;4976322;28;94668;-34
2022/05/23 06:54:22;;;;;;;10.48;7.07;;;18.90;99.90;;;;;;4977464;28;94544;-35
2022/05/23 06:56:49;;;;;;;8.68;7.53;;;18.90;99.90;;;;;;4976301;28;93183;-36
2022/05/23 06:59:15;;;;;;;10.15;7.45;;;19.00;99.90;;;;;;4977531;28;92920;-36
2022/05/23 07:01:42;;;;;;;12.23;7.57;;;19.30;99.90;;;;;;4976036;28;94878;-37
2022/05/23 07:04:08;;;;;;;19.73;7.80;;;19.40;99.90;;;;;;4977133;28;93391;-34
2022/05/23 07:12:23;;;;;;;8.90;7.63;;;19.80;99.90;;;;;;4986174;28;94967;-34
2022/05/23 07:14:50;;;;;;;10.55;7.13;;;19.90;99.90;;;;;;4963665;28;94539;-36
2022/05/23 07:17:16;;;;;;;10.77;7.75;;;20.20;99.90;;;;;;4996503;28;92767;-34
2022/05/23 07:19:42;;;;;;;8.32;7.28;;;20.00;99.90;;;;;;4987959;28;93776;-38
2022/05/23 07:22:09;;;;;;;9.48;7.57;;;20.40;99.90;;;;;;4975683;28;95671;-35
2022/05/23 07:24:35;;;;;;;12.77;7.70;;;20.70;99.90;;;;;;4975979;28;95148;-38
2022/05/23 07:27:01;;;;;;;10.60;7.28;;;20.70;99.90;;;;;;4977493;28;93445;-35
2022/05/23 07:29:28;;;;;;;8.07;7.13;;;20.90;99.90;;;;;;4976280;28;92188;-36
2022/05/23 07:31:54;;;;;;;12.48;7.03;;;20.90;99.90;;;;;;4975316;28;94658;-39
2022/05/23 07:34:20;;;;;;;7.55;6.78;;;21.00;99.90;;;;;;4975144;28;94316;-34
2022/05/23 07:36:48;;;;;;;7.97;7.13;;;21.00;99.90;;;;;;4975917;28;93254;-34
2022/05/23 07:39:14;;;;;;;8.90;6.13;;;21.20;99.90;;;;;;4976895;28;92220;-36
2022/05/23 07:41:42;;;;;;;10.85;6.93;;;21.10;99.90;;;;;;4975878;28;94619;-37
2022/05/23 07:44:09;;;;;;;9.13;6.80;;;21.20;99.90;;;;;;4976108;28;94807;-37
2022/05/23 07:46:35;;;;;;;6.97;6.37;;;21.50;99.90;;;;;;4976028;28;93959;-37
2022/05/23 07:49:01;;;;;;;7.55;6.10;;;21.50;99.90;;;;;;4975524;28;94095;-38
2022/05/23 07:51:32;;;;;;;11.75;6.97;;;21.30;99.90;;;;;;4976111;28;96399;-33
2022/05/23 08:02:12;;;;;;;7.10;6.45;;;21.60;99.90;;;;;;4974612;28;94863;-36
2022/05/23 08:04:38;;;;;;;8.90;7.03;;;22.00;99.90;;;;;;4975650;28;94549;-34
2022/05/23 08:07:05;;;;;;;6.80;6.13;;;22.20;99.90;;;;;;4976610;28;92455;-37
2022/05/23 08:09:31;;;;;;;6.47;5.97;;;22.30;99.90;;;;;;4975640;28;93226;-35
2022/05/23 08:11:57;;;;;;;7.63;6.85;;;22.20;99.90;;;;;;4974040;28;95658;-40
2022/05/23 08:14:23;;;;;;;6.82;6.15;;;22.20;99.90;;;;;;4975775;28;95462;-36
2022/05/23 08:16:50;;;;;;;7.90;6.03;;;22.40;99.90;;;;;;4975487;28;94409;-34
2022/05/23 08:19:15;;;;;;;9.05;6.15;;;22.60;99.90;;;;;;4975741;28;94867;-35
2022/05/23 08:22:01;;;;;;;9.73;5.57;;;22.50;99.90;;;;;;4975478;28;94933;-35
2022/05/23 08:24:27;;;;;;;6.60;6.00;;;22.90;99.90;;;;;;4974878;28;94845;-36
2022/05/23 08:26:53;;;;;;;8.77;6.47;;;23.10;99.90;;;;;;4976119;28;92962;-36
2022/05/23 08:29:19;;;;;;;6.53;5.50;;;23.20;90.50;;;;;;4976598;28;93485;-36
2022/05/23 08:31:45;;;;;;;8.52;5.78;;;23.00;94.30;;;;;;4974684;28;94664;-37
2022/05/23 08:34:11;;;;;;;6.80;4.93;;;22.90;96.30;;;;;;4975223;28;94276;-35
2022/05/23 08:36:36;;;;;;;8.30;5.95;;;23.20;99.90;;;;;;4974400;28;95133;-36
2022/05/23 08:39:03;;;;;;;8.10;6.13;;;23.20;98.20;;;;;;4975542;28;94265;-40
2022/05/23 08:41:33;;;;;;;6.57;5.95;;;22.90;99.20;;;;;;4975323;28;94746;-37
2022/05/23 08:44:24;;;;;;;5.57;5.07;;;22.80;99.90;;;;;;4974949;28;95042;-34
2022/05/23 08:47:11;;;;;;;7.22;6.28;;;23.30;99.90;;;;;;4974718;28;93920;-39
2022/05/23 08:49:47;;;;;;;5.67;5.17;;;23.60;95.90;;;;;;4974405;28;93412;-37
2022/05/23 08:52:35;;;;;;;7.90;4.63;;;23.50;96.90;;;;;;4974578;28;96095;-36
2022/05/23 08:55:17;;;;;;;7.60;6.55;;;23.60;97.10;;;;;;4975286;28;96122;-37
2022/05/23 08:58:22;;;;;;;6.25;5.65;;;23.40;90.80;;;;;;4975258;28;94720;-34
2022/05/23 09:01:04;;;;;;;6.18;4.93;;;23.20;94.10;;;;;;4974584;28;93412;-37
2022/05/23 09:03:35;;;;;;;8.30;5.50;;;23.60;97.20;;;;;;4974661;28;95809;-39
2022/05/23 09:06:28;;;;;;;8.07;6.13;;;23.20;92.20;;;;;;4974908;28;95606;-36
2022/05/23 09:08:57;;;;;;;7.95;5.65;;;23.30;94.50;;;;;;4974709;28;92962;-38
2022/05/23 09:11:38;;;;;;;9.15;5.40;;;23.40;91.70;;;;;;4974832;28;94586;-36
2022/05/23 09:14:06;;;;;;;12.35;6.82;;;23.60;91.80;;;;;;4975634;28;94916;-34
2022/05/23 09:16:33;;;;;;;;;;;24.00;94.80;;;;;;4974903;28;94262;-35
2022/05/23 09:19:09;;;;;;;;;;;23.80;91.50;;;;;;4976752;28;93121;-38
2022/05/23 09:24:19;;;;;;;7.03;4.38;;;24.00;91.40;;;;;;4974481;28;95054;-38
2022/05/23 09:26:46;;;;;;;9.73;6.03;;;24.10;81.80;;;;;;4974041;28;94400;-38
2022/05/23 09:29:12;;;;;;;7.95;5.40;;;24.40;87.30;;;;;;4975003;28;95891;-37
2022/05/23 09:31:54;;;;;;;8.18;6.25;;;24.30;89.90;;;;;;4974298;28;93503;-36
2022/05/23 09:34:30;;;;;;;7.47;4.40;;;24.00;81.40;;;;;;4974191;28;94774;-36
2022/05/23 09:36:58;;;;;;;6.88;5.10;;;23.80;86.80;;;;;;4973951;28;95016;-37
2022/05/23 09:39:25;;;;;;;7.45;5.55;;;23.80;93.90;;;;;;4974729;28;93637;-36
2022/05/23 09:47:46;;;;;;;5.97;5.40;;;24.70;91.90;;;;;;4973707;28;95095;-36
2022/05/23 09:50:33;;;;;;;7.25;5.65;;;24.60;88.10;;;;;;4974459;28;94528;-34
2022/05/23 09:53:01;;;;;;;5.50;5.00;;;24.80;82.80;;;;;;4973399;28;93059;-36
2022/05/23 09:55:31;;;;;;;5.43;4.88;;;24.60;80.40;;;;;;4973586;28;95704;-35
2022/05/23 09:58:01;;;;;;;8.63;5.70;;;24.70;90.40;;;;;;4977149;28;95455;-39
2022/05/23 10:00:35;;;;;;;5.88;5.40;;;24.50;74.00;;;;;;4977384;28;93440;-37
2022/05/23 10:03:13;;;;;;;5.30;4.65;;;24.20;85.50;;;;;;4978100;28;94741;-36
2022/05/23 10:05:46;;;;;;;8.25;5.20;;;23.80;90.70;;;;;;4977857;28;94699;-35
2022/05/23 10:08:13;;;;;;;10.48;5.55;;;23.40;91.40;;;;;;4977468;28;94706;-36
2022/05/23 10:10:52;;;;;;;6.55;5.68;;;23.40;93.10;;;;;;4977355;28;93326;-35
2022/05/23 10:13:31;;;;;;;10.65;5.53;;;23.40;95.20;;;;;;4978033;28;91933;-36
2022/05/23 10:16:11;;;;;;;6.72;5.35;;;23.60;92.00;;;;;;4977524;28;94812;-35
2022/05/23 10:18:52;;;;;;;5.63;5.22;;;23.40;93.10;;;;;;4977435;28;94390;-39
2022/05/23 10:21:45;;;;;;;25.52;6.68;;;23.50;94.10;;;;;;4976981;28;95273;-35
2022/05/23 10:24:17;;;;;;;5.95;4.25;;;23.60;90.90;;;;;;4977614;28;94053;-37
2022/05/23 10:27:02;;;;;;;7.65;3.95;;;23.70;94.30;;;;;;4977305;28;95300;-39
2022/05/23 10:29:55;;;;;;;5.40;3.72;;;24.00;79.50;;;;;;4977379;28;94795;-37
2022/05/23 10:32:48;;;;;;;4.45;4.05;;;24.40;70.60;;;;;;4977737;28;93042;-34
2022/05/23 10:35:35;;;;;;;8.23;3.65;;;24.50;69.90;;;;;;4977618;28;92221;-36
2022/05/23 10:44:01;;;;;;;4.30;2.95;;;24.90;68.80;;;;;;4978079;28;92483;-35
2022/05/23 10:46:28;;;;;;;4.25;3.85;;;24.70;61.80;;;;;;4976899;28;93894;-37
2022/05/23 10:49:23;;;;;;;4.80;2.85;;;24.60;63.60;;;;;;4975602;28;96672;-33
2022/05/23 10:52:05;;;;;;;5.47;3.00;;;24.90;64.30;;;;;;4976611;28;95392;-36
2022/05/23 10:55:06;;;;;;;5.32;3.75;;;24.90;62.70;;;;;;4977298;28;93506;-34
2022/05/23 10:58:21;;;;;;;4.13;3.33;;;24.90;66.40;;;;;;4976743;28;93832;-36
2022/05/23 11:01:22;;;;;;;5.22;3.05;;;24.70;62.60;;;;;;4949481;28;94677;-37
2022/05/23 11:04:03;;;;;;;3.50;3.13;;;24.60;63.40;;;;;;4976247;28;94870;-37
2022/05/23 11:06:54;;;;;;;13.38;3.85;;;24.60;64.30;;;;;;4977462;28;93678;-38
2022/05/23 11:09:58;;;;;;;3.95;3.63;;;24.60;63.80;;;;;;4975907;28;93571;-36
2022/05/23 11:12:31;;;;;;;6.85;4.20;;;24.70;63.80;;;;;;4976183;28;94396;-38
2022/05/23 11:15:30;;;;;;;7.10;4.07;;;24.60;66.20;;;;;;4975776;28;94522;-38
2022/05/23 11:18:08;;;;;;;7.72;4.20;;;24.70;67.80;;;;;;4976321;28;95087;-36
2022/05/23 11:20:37;;;;;;;25.98;7.25;;;24.90;73.00;;;;;;4977225;28;94002;-36
2022/05/23 11:23:29;;;;;;;4.55;3.85;;;25.10;70.00;;;;;;4975515;28;96302;-36
2022/05/23 11:26:07;;;;;;;4.38;4.03;;;25.10;67.60;;;;;;4976571;28;95632;-34
2022/05/23 11:34:24;;;;;;;5.03;4.15;;;25.10;67.00;;;;;;4976109;28;95078;-37
2022/05/23 11:37:08;;;;;;;9.43;5.13;;;24.80;68.40;;;;;;4976254;28;95259;-38
2022/05/23 11:39:46;;;;;;;6.50;4.75;;;24.70;66.80;;;;;;4976473;28;93003;-40
2022/05/23 11:42:32;;;;;;;7.03;5.28;;;24.60;77.70;;;;;;4975984;28;94521;-37
2022/05/23 11:47:59;;;;;;;4.90;4.22;;;24.60;71.40;;;;;;4974537;28;95582;-36
2022/05/23 11:50:31;;;;;;;5.28;3.78;;;24.70;73.10;;;;;;4976937;28;93551;-37
2022/05/23 11:53:12;;;;;;;3.92;3.63;;;24.80;68.70;;;;;;4975848;28;93178;-36
2022/05/23 11:55:55;;;;;;;4.75;3.67;;;25.00;71.40;;;;;;4975646;28;96262;-38
2022/05/23 11:58:42;;;;;;;10.55;3.95;;;25.30;68.70;;;;;;4975283;28;94800;-37
2022/05/23 12:01:10;;;;;;;7.18;4.20;;;25.40;63.50;;;;;;4976849;28;93303;-37
2022/05/23 12:03:50;;;;;;;6.50;3.58;;;25.40;64.10;;;;;;4975878;28;93940;-37
2022/05/23 12:06:19;;;;;;;6.30;4.20;;;25.30;62.50;;;;;;4976066;28;93619;-37
2022/05/23 12:09:00;;;;;;;4.40;4.00;;;25.40;62.90;;;;;;4975563;28;94336;-36
2022/05/23 12:11:37;;;;;;;4.80;4.13;;;25.40;64.60;;;;;;4975901;28;93836;-35
2022/05/23 12:14:11;;;;;;;5.82;3.65;;;25.40;63.00;;;;;;4976015;28;93090;-36
2022/05/23 12:16:49;;;;;;;7.72;4.00;;;25.20;64.00;;;;;;4975398;28;94706;-36
2022/05/23 12:19:29;;;;;;;4.28;3.88;;;25.00;63.90;;;;;;4975634;28;94347;-35
2022/05/23 12:22:16;;;;;;;5.93;3.80;;;24.90;64.80;;;;;;4975589;28;93607;-36
2022/05/23 12:25:01;;;;;;;5.57;3.63;;;25.00;68.70;;;;;;4974772;28;93168;-37
2022/05/23 12:27:39;;;;;;;4.82;4.20;;;25.30;67.70;;;;;;4975320;28;94607;-34
2022/05/23 12:30:17;;;;;;;4.93;3.72;;;25.30;67.50;;;;;;4975460;28;94709;-37
2022/05/23 12:33:04;;;;;;;;;;;25.30;70.10;;;;;;4975866;28;94448;-34
2022/05/23 12:35:54;;;;;;;6.15;4.82;;;25.20;68.70;;;;;;4977011;28;93661;-34
2022/05/23 12:38:28;;;;;;;6.13;4.25;;;25.10;77.50;;;;;;4974146;28;95633;-36
2022/05/23 12:41:28;;;;;;;8.35;4.88;;;25.00;68.10;;;;;;4975424;28;94320;-41
2022/05/23 12:44:07;;;;;;;4.90;4.35;;;24.90;68.70;;;;;;4974897;28;94501;-36
2022/05/23 12:46:41;;;;;;;7.90;4.03;;;24.90;68.30;;;;;;4973666;28;93571;-35
2022/05/23 12:49:19;;;;;;;8.35;4.78;;;24.90;80.60;;;;;;4995408;22;94780;-35
2022/05/23 12:52:05;;;;;;;4.78;4.07;;;24.80;70.50;;;;;;4954106;28;94677;-35
2022/05/23 12:55:02;;;;;;;9.30;4.30;;;24.80;68.90;;;;;;4955672;28;92936;-36
2022/05/23 12:58:05;;;;;;;128.80;20.30;;;24.70;69.40;;;;;;4955473;28;91892;-36
2022/05/23 13:00:36;;;;;;;4.85;3.90;;;24.70;78.60;;;;;;4954565;28;94670;-37
2022/05/23 13:03:13;;;;;;;4.25;3.95;;;24.50;75.10;;;;;;4954649;28;94535;-38
2022/05/23 13:05:44;;;;;;;5.10;4.60;;;24.60;75.20;;;;;;4954454;28;93169;-38
2022/05/23 13:08:21;;;;;;;4.53;4.13;;;24.70;80.60;;;;;;4954972;28;93266;-37
2022/05/23 13:11:02;;;;;;;4.45;4.05;;;24.60;79.90;;;;;;4955243;28;94538;-37
2022/05/23 13:13:40;;;;;;;6.25;4.65;;;24.70;76.70;;;;;;4954968;28;94919;-36
2022/05/23 13:16:30;;;;;;;6.43;4.55;;;24.50;79.20;;;;;;4955747;28;93773;-35
2022/05/23 13:22:07;;;;;;;4.50;4.15;;;24.20;82.60;;;;;;4954724;28;94703;-35
2022/05/23 13:24:49;;;;;;;4.22;3.83;;;24.20;84.80;;;;;;4963226;28;94760;-37
2022/05/23 13:27:23;;;;;;;7.82;4.72;;;24.20;81.50;;;;;;4974573;28;94281;-39
2022/05/23 13:30:01;;;;;;;4.20;3.80;;;24.20;86.30;;;;;;4974336;28;93069;-37
2022/05/23 13:32:28;;;;;;;19.33;6.80;;;24.00;86.40;;;;;;4976792;28;95932;-39
2022/05/23 13:34:56;;;;;;;13.30;5.23;;;24.00;90.10;;;;;;4966768;28;97037;-37
2022/05/23 13:37:35;;;;;;;4.20;3.90;;;24.00;93.10;;;;;;4956896;28;93235;-35
2022/05/23 13:40:33;;;;;;;6.93;4.18;;;24.00;90.20;;;;;;4956476;28;95021;-35
2022/05/23 13:43:17;;;;;;;12.52;4.93;;;24.00;86.40;;;;;;4957007;28;93768;-36
2022/05/23 13:45:46;;;;;;;4.88;3.70;;;24.00;87.50;;;;;;4958353;28;94724;-36
2022/05/23 13:48:45;;;;;;;28.10;6.65;;;24.20;89.90;;;;;;4956758;28;94351;-38
2022/05/23 13:51:18;;;;;;;5.03;3.70;;;24.30;87.00;;;;;;4958184;28;92218;-39
2022/05/23 13:53:56;;;;;;;5.63;4.45;;;24.40;89.40;;;;;;4956970;28;95660;-38
2022/05/23 13:56:22;;;;;;;4.95;4.55;;;24.50;84.70;;;;;;4957685;28;94387;-36
2022/05/23 13:58:56;;;;;;;6.80;4.10;;;24.40;85.30;;;;;;4957784;28;95789;-39
2022/05/23 14:01:48;;;;;;;4.65;4.18;;;24.30;90.80;;;;;;4957694;28;93153;-38
2022/05/23 14:04:17;;;;;;;4.70;4.25;;;24.40;89.20;;;;;;4957985;28;94932;-38
2022/05/23 14:06:49;;;;;;;5.28;4.65;;;24.40;84.60;;;;;;4957388;28;94669;-36
2022/05/23 14:09:15;;;;;;;8.45;4.15;;;24.50;91.90;;;;;;4958404;28;93012;-36
2022/05/23 14:11:51;;;;;;;5.22;4.72;;;24.60;91.80;;;;;;4956763;28;93188;-38
2022/05/23 14:14:34;;;;;;;6.50;4.88;;;24.60;86.90;;;;;;4957033;28;94845;-39
2022/05/23 14:17:04;;;;;;;4.90;4.28;;;24.60;90.30;;;;;;4958201;28;95356;-35